Time;durP1;ratioP1;P1;durP2;ratioP2;P2;SDS_P1;SDS_P2;PMS_P1;PMS_P2;Temp;Humidity;BMP_temperature;BMP_pressure;BME280_temperature;BME280_humidity;BME280_pressure;Samples;Min_cycle;Max_cycle;Signal;HPM_P1;HPM_P2
2021/12/01 00:00:08;;;;;;;22.48;11.70;;;;;;;;;;5072130;28;20122;-82
2021/12/01 00:02:35;;;;;;;26.15;11.95;;;;;;;;;;5071391;28;20060;-82
2021/12/01 00:05:01;;;;;;;31.40;12.65;;;;;;;;;;5072722;28;20380;-82
2021/12/01 00:07:28;;;;;;;27.50;12.57;;;;;;;;;;5069712;28;20045;-82
2021/12/01 00:09:54;;;;;;;28.77;11.82;;;;;;;;;;5071206;28;20083;-81
2021/12/01 00:12:20;;;;;;;29.23;12.00;;;;;;;;;;5062167;28;20459;-82
2021/12/01 00:14:47;;;;;;;26.00;11.07;;;;;;;;;;5073635;28;20052;-82
2021/12/01 00:17:13;;;;;;;25.35;11.10;;;;;;;;;;5070577;28;20049;-82
2021/12/01 00:19:39;;;;;;;28.08;10.70;;;;;;;;;;5072081;28;20566;-81
2021/12/01 00:22:07;;;;;;;22.92;9.63;;;;;;;;;;5069563;28;20052;-81
2021/12/01 00:24:34;;;;;;;23.23;9.90;;;;;;;;;;5057672;28;20049;-82
2021/12/01 00:27:00;;;;;;;22.55;9.60;;;;;;;;;;5058742;28;20878;-81
2021/12/01 00:29:27;;;;;;;21.02;9.85;;;;;;;;;;5069904;28;20516;-83
2021/12/01 00:31:53;;;;;;;22.80;9.07;;;;;;;;;;5069925;28;20902;-82
2021/12/01 00:34:19;;;;;;;23.20;9.43;;;;;;;;;;5072286;28;20143;-81
2021/12/01 00:36:46;;;;;;;18.65;9.73;;;;;;;;;;5069603;28;20504;-82
2021/12/01 00:39:12;;;;;;;22.17;8.85;;;;;;;;;;5071890;28;20061;-82
2021/12/01 00:41:38;;;;;;;22.30;9.82;;;;;;;;;;5071324;28;20814;-82
2021/12/01 00:44:07;;;;;;;24.58;10.18;;;;;;;;;;5070164;28;20053;-82
2021/12/01 00:46:42;;;;;;;19.15;10.40;;;;;;;;;;5071761;28;20041;-83
2021/12/01 00:49:09;;;;;;;21.85;10.45;;;;;;;;;;5070720;28;20053;-82
2021/12/01 00:51:35;;;;;;;24.25;10.38;;;;;;;;;;5070970;28;20048;-82
2021/12/01 00:54:01;;;;;;;23.15;10.88;;;;;;;;;;5069941;28;20590;-81
2021/12/01 00:56:28;;;;;;;22.80;10.43;;;;;;;;;;5069886;28;20061;-82
2021/12/01 00:58:54;;;;;;;21.38;9.95;;;;;;;;;;5072015;28;20045;-82
2021/12/01 01:01:20;;;;;;;20.83;9.27;;;;;;;;;;5070044;28;20052;-82
2021/12/01 01:03:49;;;;;;;20.35;9.25;;;;;;;;;;5083783;28;20049;-81
2021/12/01 01:06:15;;;;;;;22.70;9.57;;;;;;;;;;5076391;28;20053;-82
2021/12/01 01:08:42;;;;;;;22.90;9.30;;;;;;;;;;5061827;28;20332;-81
2021/12/01 01:16:22;;;;;;;25.58;9.40;;;;;;;;;;5059943;28;20033;-81
2021/12/01 01:16:43;;;;;;;19.10;8.35;;;;;;;;;;5070755;28;20162;-82
2021/12/01 01:19:10;;;;;;;16.20;8.55;;;;;;;;;;5069560;28;20479;-81
2021/12/01 01:21:41;;;;;;;16.90;8.57;;;;;;;;;;5069778;28;20049;-82
2021/12/01 01:24:07;;;;;;;16.10;7.68;;;;;;;;;;5071154;28;20072;-82
2021/12/01 01:26:35;;;;;;;20.75;7.97;;;;;;;;;;5069605;28;20041;-82
2021/12/01 01:29:03;;;;;;;16.35;8.43;;;;;;;;;;5064597;28;20215;-82
2021/12/01 01:31:29;;;;;;;17.02;7.53;;;;;;;;;;5057498;28;20115;-82
2021/12/01 01:33:57;;;;;;;17.95;8.50;;;;;;;;;;5069782;28;20053;-82
2021/12/01 01:36:24;;;;;;;19.20;7.13;;;;;;;;;;5069121;28;20057;-81
2021/12/01 01:38:50;;;;;;;13.68;6.45;;;;;;;;;;5069616;28;20103;-81
2021/12/01 01:41:17;;;;;;;16.80;8.27;;;;;;;;;;5070816;28;20466;-82
2021/12/01 01:43:44;;;;;;;15.50;7.82;;;;;;;;;;5070303;28;20635;-81
2021/12/01 01:46:11;;;;;;;17.15;7.75;;;;;;;;;;5075099;28;20052;-82
2021/12/01 01:51:14;;;;;;;16.30;6.90;;;;;;;;;;5073872;28;20056;-82
2021/12/01 01:53:40;;;;;;;15.38;6.40;;;;;;;;;;5073038;28;20053;-82
2021/12/01 01:56:07;;;;;;;15.02;6.75;;;;;;;;;;5072306;28;20057;-81
2021/12/01 01:58:33;;;;;;;15.82;6.32;;;;;;;;;;5072651;28;20049;-82
2021/12/01 02:01:08;;;;;;;11.93;6.53;;;;;;;;;;5074434;28;20126;-82
2021/12/01 02:03:39;;;;;;;12.85;5.72;;;;;;;;;;5069820;28;20054;-82
2021/12/01 02:06:06;;;;;;;13.02;6.00;;;;;;;;;;5069566;28;20957;-81
2021/12/01 02:08:34;;;;;;;10.43;5.07;;;;;;;;;;5071800;28;20110;-82
2021/12/01 02:11:03;;;;;;;12.75;5.40;;;;;;;;;;5081088;28;20053;-82
2021/12/01 02:13:30;;;;;;;10.65;4.93;;;;;;;;;;5076683;28;20057;-81
2021/12/01 02:15:57;;;;;;;7.38;3.63;;;;;;;;;;5074741;28;20084;-82
2021/12/01 02:18:24;;;;;;;11.30;4.47;;;;;;;;;;5073113;28;20049;-82
2021/12/01 02:21:02;;;;;;;7.32;3.60;;;;;;;;;;5071786;28;20057;-83
2021/12/01 02:23:29;;;;;;;7.82;3.85;;;;;;;;;;5072912;28;20056;-81
2021/12/01 02:25:55;;;;;;;7.07;3.58;;;;;;;;;;5072077;28;20045;-82
2021/12/01 02:28:22;;;;;;;7.40;3.50;;;;;;;;;;5073946;28;20124;-82
2021/12/01 02:30:48;;;;;;;6.82;3.20;;;;;;;;;;5072677;28;20045;-82
2021/12/01 02:33:14;;;;;;;7.40;3.58;;;;;;;;;;5071613;28;20076;-81
2021/12/01 02:35:41;;;;;;;6.85;3.25;;;;;;;;;;5058909;28;20053;-81
2021/12/01 02:38:08;;;;;;;6.43;3.13;;;;;;;;;;5055939;28;20459;-82
2021/12/01 02:40:34;;;;;;;9.07;3.00;;;;;;;;;;5072951;28;20504;-82
2021/12/01 02:43:01;;;;;;;5.70;2.65;;;;;;;;;;5072863;28;20088;-82
2021/12/01 02:45:27;;;;;;;5.53;2.80;;;;;;;;;;5072847;28;20057;-82
2021/12/01 02:47:53;;;;;;;7.45;2.90;;;;;;;;;;5071818;28;20522;-82
2021/12/01 02:50:20;;;;;;;5.60;2.80;;;;;;;;;;5071536;28;20061;-82
2021/12/01 02:52:46;;;;;;;4.90;2.55;;;;;;;;;;5072426;28;20119;-82
2021/12/01 02:55:18;;;;;;;7.10;3.17;;;;;;;;;;5071579;28;20076;-82
2021/12/01 02:57:46;;;;;;;7.43;3.10;;;;;;;;;;5072219;28;20057;-81
2021/12/01 03:00:12;;;;;;;6.82;2.90;;;;;;;;;;5071689;28;20053;-82
2021/12/01 03:02:40;;;;;;;7.68;4.00;;;;;;;;;;5068016;28;20131;-82
2021/12/01 03:05:06;;;;;;;6.75;3.63;;;;;;;;;;5072242;28;20061;-82
2021/12/01 03:07:33;;;;;;;9.23;4.10;;;;;;;;;;5070396;28;20053;-82
2021/12/01 03:09:59;;;;;;;7.40;4.05;;;;;;;;;;5070076;28;20875;-82
2021/12/01 03:12:27;;;;;;;7.22;4.10;;;;;;;;;;5070026;28;20083;-82
2021/12/01 03:14:54;;;;;;;8.55;4.10;;;;;;;;;;5070846;28;20095;-82
2021/12/01 03:17:20;;;;;;;6.72;3.65;;;;;;;;;;5071132;28;20172;-82
2021/12/01 03:19:47;;;;;;;5.95;3.50;;;;;;;;;;5071509;28;20095;-82
2021/12/01 03:22:13;;;;;;;5.88;3.65;;;;;;;;;;5068704;28;20057;-83
2021/12/01 03:24:40;;;;;;;9.30;4.03;;;;;;;;;;5068716;28;20099;-82
2021/12/01 03:27:06;;;;;;;6.20;3.13;;;;;;;;;;5070844;28;20096;-82
2021/12/01 03:29:32;;;;;;;6.53;4.32;;;;;;;;;;5073765;28;20080;-82
2021/12/01 03:31:59;;;;;;;7.32;4.13;;;;;;;;;;5071193;28;20075;-81
2021/12/01 03:34:25;;;;;;;7.13;3.90;;;;;;;;;;5070556;28;20611;-82
2021/12/01 03:36:52;;;;;;;6.65;4.18;;;;;;;;;;5073893;28;20515;-82
2021/12/01 03:39:18;;;;;;;7.57;4.00;;;;;;;;;;5072329;28;20045;-82
2021/12/01 03:41:45;;;;;;;7.60;4.40;;;;;;;;;;5060351;28;20556;-81
2021/12/01 03:44:11;;;;;;;7.10;4.18;;;;;;;;;;5059391;28;20596;-82
2021/12/01 03:46:37;;;;;;;7.00;4.47;;;;;;;;;;5069410;28;20119;-81
2021/12/01 03:49:04;;;;;;;6.90;4.10;;;;;;;;;;5071434;28;20079;-82
2021/12/01 03:51:30;;;;;;;6.75;4.07;;;;;;;;;;5070598;28;20891;-82
2021/12/01 03:53:57;;;;;;;8.07;4.40;;;;;;;;;;5070251;28;20835;-81
2021/12/01 03:56:23;;;;;;;6.45;3.80;;;;;;;;;;5070182;28;20099;-81
2021/12/01 03:58:49;;;;;;;7.78;3.90;;;;;;;;;;5069919;28;20053;-82
2021/12/01 04:01:16;;;;;;;6.60;3.83;;;;;;;;;;5069371;28;20057;-82
2021/12/01 04:03:43;;;;;;;6.32;3.67;;;;;;;;;;5070400;28;20056;-81
2021/12/01 04:06:09;;;;;;;5.78;3.13;;;;;;;;;;5070602;28;20498;-82
2021/12/01 04:08:35;;;;;;;6.65;3.58;;;;;;;;;;5069787;28;20057;-81
2021/12/01 04:11:02;;;;;;;6.78;3.60;;;;;;;;;;5061294;28;20077;-81
2021/12/01 04:13:29;;;;;;;5.95;4.15;;;;;;;;;;5050732;28;20045;-81
2021/12/01 04:15:55;;;;;;;7.03;4.53;;;;;;;;;;5060248;28;20049;-81
2021/12/01 04:18:22;;;;;;;7.00;4.40;;;;;;;;;;5070750;28;20495;-81
2021/12/01 04:20:48;;;;;;;6.35;4.25;;;;;;;;;;5070239;28;20197;-81
2021/12/01 04:23:14;;;;;;;6.80;3.63;;;;;;;;;;5071721;28;20565;-81
2021/12/01 04:25:41;;;;;;;7.20;4.38;;;;;;;;;;5071626;28;20106;-82
2021/12/01 04:28:08;;;;;;;7.80;4.65;;;;;;;;;;5076139;28;20098;-81
2021/12/01 04:30:34;;;;;;;8.82;5.45;;;;;;;;;;5070197;28;20053;-81
2021/12/01 04:33:00;;;;;;;9.32;5.55;;;;;;;;;;5069952;28;20130;-81
2021/12/01 04:35:28;;;;;;;9.25;5.03;;;;;;;;;;5071517;28;20057;-82
2021/12/01 04:37:55;;;;;;;9.20;5.03;;;;;;;;;;5069613;28;20071;-81
2021/12/01 04:40:22;;;;;;;9.00;4.78;;;;;;;;;;5069369;28;20053;-81
2021/12/01 04:42:48;;;;;;;7.40;3.95;;;;;;;;;;5070704;28;20056;-81
2021/12/01 04:45:16;;;;;;;7.45;3.67;;;;;;;;;;5086851;28;20067;-81
2021/12/01 04:47:52;;;;;;;7.93;3.70;;;;;;;;;;5077245;28;20136;-81
2021/12/01 04:50:20;;;;;;;6.22;3.00;;;;;;;;;;5054859;28;20516;-81
2021/12/01 04:52:47;;;;;;;8.20;3.25;;;;;;;;;;5062474;28;20064;-81
2021/12/01 04:55:13;;;;;;;6.55;3.50;;;;;;;;;;5071152;28;20049;-82
2021/12/01 04:57:44;;;;;;;7.25;3.50;;;;;;;;;;5069649;28;20120;-82
2021/12/01 05:00:13;;;;;;;6.07;3.35;;;;;;;;;;5068150;28;20522;-81
2021/12/01 05:02:39;;;;;;;5.80;3.20;;;;;;;;;;5050295;28;20088;-81
2021/12/01 05:05:06;;;;;;;5.85;3.25;;;;;;;;;;5063018;28;20049;-81
2021/12/01 05:07:33;;;;;;;5.68;3.20;;;;;;;;;;5068195;28;20056;-81
2021/12/01 05:09:59;;;;;;;5.47;3.20;;;;;;;;;;5069309;28;20052;-81
2021/12/01 05:12:26;;;;;;;7.50;3.88;;;;;;;;;;5068054;28;20111;-81
2021/12/01 05:14:53;;;;;;;5.72;3.03;;;;;;;;;;5069862;28;20180;-81
2021/12/01 05:17:20;;;;;;;5.72;2.97;;;;;;;;;;5070731;28;20099;-81
2021/12/01 05:19:47;;;;;;;6.25;3.42;;;;;;;;;;5093055;28;20110;-80
2021/12/01 05:22:14;;;;;;;6.22;3.47;;;;;;;;;;5092790;28;20103;-81
2021/12/01 05:24:40;;;;;;;7.82;3.67;;;;;;;;;;5081181;28;20154;-81
2021/12/01 05:27:07;;;;;;;6.85;3.85;;;;;;;;;;5073393;28;20128;-81
2021/12/01 05:29:33;;;;;;;8.05;4.13;;;;;;;;;;5072193;28;20057;-81
2021/12/01 05:31:59;;;;;;;7.50;3.70;;;;;;;;;;5072237;28;20111;-82
2021/12/01 05:34:26;;;;;;;6.72;3.60;;;;;;;;;;5073740;28;20099;-82
2021/12/01 05:36:54;;;;;;;6.75;3.30;;;;;;;;;;5077985;28;20054;-82
2021/12/01 05:39:21;;;;;;;6.97;3.40;;;;;;;;;;5071922;28;20053;-82
2021/12/01 05:41:47;;;;;;;6.40;3.20;;;;;;;;;;5067078;28;20061;-82
2021/12/01 05:44:14;;;;;;;6.55;3.47;;;;;;;;;;5051565;28;20123;-82
2021/12/01 05:46:40;;;;;;;7.50;3.58;;;;;;;;;;5065873;28;20553;-82
2021/12/01 05:49:06;;;;;;;7.55;3.80;;;;;;;;;;5072532;28;20511;-82
2021/12/01 05:51:33;;;;;;;6.50;3.72;;;;;;;;;;5074266;28;20095;-81
2021/12/01 05:54:00;;;;;;;7.07;3.97;;;;;;;;;;5058295;28;20090;-82
2021/12/01 05:56:27;;;;;;;7.57;3.80;;;;;;;;;;5068753;28;20240;-83
2021/12/01 05:58:53;;;;;;;7.43;3.92;;;;;;;;;;5073642;28;20075;-82
2021/12/01 06:01:20;;;;;;;5.70;3.30;;;;;;;;;;5071928;28;20077;-82
2021/12/01 06:03:46;;;;;;;7.38;4.00;;;;;;;;;;5072487;28;20045;-82
2021/12/01 06:06:12;;;;;;;9.02;4.38;;;;;;;;;;5071507;28;20475;-82
2021/12/01 06:08:39;;;;;;;10.82;4.13;;;;;;;;;;5076239;28;20032;-83
2021/12/01 06:11:05;;;;;;;7.70;3.75;;;;;;;;;;5072028;28;20431;-82
2021/12/01 06:13:32;;;;;;;6.97;4.03;;;;;;;;;;5072676;28;20501;-80
2021/12/01 06:15:58;;;;;;;8.68;4.38;;;;;;;;;;5072041;28;20147;-79
2021/12/01 06:18:25;;;;;;;9.35;5.07;;;;;;;;;;5070378;28;20492;-80
2021/12/01 06:20:51;;;;;;;9.38;5.25;;;;;;;;;;5072530;28;20123;-79
2021/12/01 06:23:18;;;;;;;7.80;4.47;;;;;;;;;;5071789;28;20087;-79
2021/12/01 06:25:45;;;;;;;8.02;4.60;;;;;;;;;;5077917;28;20049;-80
2021/12/01 06:28:11;;;;;;;8.10;4.55;;;;;;;;;;5071591;28;20115;-80
2021/12/01 06:30:38;;;;;;;9.77;5.57;;;;;;;;;;5056749;28;20053;-80
2021/12/01 06:33:05;;;;;;;9.35;4.93;;;;;;;;;;5070591;28;20555;-79
2021/12/01 06:35:31;;;;;;;9.07;4.68;;;;;;;;;;5072243;28;20429;-79
2021/12/01 06:37:58;;;;;;;9.57;5.03;;;;;;;;;;5062461;28;20053;-81
2021/12/01 06:40:25;;;;;;;10.38;4.97;;;;;;;;;;5071450;28;20049;-80
2021/12/01 06:42:51;;;;;;;9.27;5.05;;;;;;;;;;5072604;28;20049;-80
2021/12/01 06:45:18;;;;;;;11.88;6.25;;;;;;;;;;5072265;28;20107;-81
2021/12/01 06:47:45;;;;;;;10.65;5.65;;;;;;;;;;5070669;28;20122;-81
2021/12/01 06:50:12;;;;;;;9.70;5.57;;;;;;;;;;5071743;28;20045;-81
2021/12/01 06:52:39;;;;;;;9.63;5.70;;;;;;;;;;5072273;28;20049;-80
2021/12/01 06:55:07;;;;;;;10.50;5.68;;;;;;;;;;5070371;28;20109;-80
2021/12/01 06:57:33;;;;;;;9.48;5.75;;;;;;;;;;5059975;28;20077;-80
2021/12/01 07:00:00;;;;;;;11.95;6.22;;;;;;;;;;5063762;28;20052;-80
2021/12/01 07:02:27;;;;;;;9.18;5.45;;;;;;;;;;5068009;28;20099;-80
2021/12/01 07:04:53;;;;;;;9.75;5.88;;;;;;;;;;5071915;28;20136;-80
2021/12/01 07:07:19;;;;;;;9.60;5.43;;;;;;;;;;5071310;28;20988;-81
2021/12/01 07:09:50;;;;;;;10.45;6.63;;;;;;;;;;5071778;28;20061;-80
2021/12/01 07:12:17;;;;;;;10.65;6.35;;;;;;;;;;5071027;28;20096;-81
2021/12/01 07:14:44;;;;;;;11.43;6.72;;;;;;;;;;5070931;28;20500;-81
2021/12/01 07:17:10;;;;;;;10.52;5.95;;;;;;;;;;5068945;28;20618;-81
2021/12/01 07:19:37;;;;;;;10.02;5.90;;;;;;;;;;5068557;28;20053;-81
2021/12/01 07:22:03;;;;;;;10.23;6.07;;;;;;;;;;5067339;28;20283;-81
2021/12/01 07:24:30;;;;;;;12.15;6.20;;;;;;;;;;5070612;28;20064;-81
2021/12/01 07:26:57;;;;;;;11.30;5.85;;;;;;;;;;5071874;28;20056;-80
2021/12/01 07:29:25;;;;;;;10.00;5.22;;;;;;;;;;5070884;28;20049;-81
2021/12/01 07:31:52;;;;;;;9.30;5.03;;;;;;;;;;5069773;28;20057;-81
2021/12/01 07:34:18;;;;;;;9.40;4.82;;;;;;;;;;5070215;28;20945;-80
2021/12/01 07:36:45;;;;;;;8.52;4.65;;;;;;;;;;5072409;28;20084;-80
2021/12/01 07:39:11;;;;;;;10.02;5.10;;;;;;;;;;5072127;28;20111;-80
2021/12/01 07:41:37;;;;;;;9.48;4.85;;;;;;;;;;5072055;28;20068;-81
2021/12/01 07:44:04;;;;;;;11.88;5.40;;;;;;;;;;5070894;28;20057;-81
2021/12/01 07:46:30;;;;;;;11.55;5.30;;;;;;;;;;5070108;28;20115;-80
2021/12/01 07:48:56;;;;;;;12.73;5.25;;;;;;;;;;5063374;28;20557;-81
2021/12/01 07:51:23;;;;;;;10.43;5.20;;;;;;;;;;5067427;28;20057;-80
2021/12/01 07:53:49;;;;;;;9.82;5.57;;;;;;;;;;5064381;28;20080;-80
2021/12/01 07:56:16;;;;;;;15.80;5.93;;;;;;;;;;5068995;28;20084;-80
2021/12/01 07:58:42;;;;;;;11.52;5.57;;;;;;;;;;5071516;28;20076;-80
2021/12/01 08:01:08;;;;;;;11.32;5.45;;;;;;;;;;5061124;28;20523;-80
2021/12/01 08:03:35;;;;;;;12.70;5.80;;;;;;;;;;5069224;28;20041;-79
2021/12/01 08:06:01;;;;;;;8.50;4.63;;;;;;;;;;5056047;28;20142;-80
2021/12/01 08:08:29;;;;;;;12.48;5.50;;;;;;;;;;5060946;28;20053;-80
2021/12/01 08:10:55;;;;;;;9.70;5.18;;;;;;;;;;5061811;28;20084;-79
2021/12/01 08:13:22;;;;;;;14.85;5.63;;;;;;;;;;5060944;28;20091;-81
2021/12/01 08:15:49;;;;;;;12.10;5.32;;;;;;;;;;5070737;28;20084;-80
2021/12/01 08:18:16;;;;;;;10.20;5.63;;;;;;;;;;5069481;28;20151;-80
2021/12/01 08:20:42;;;;;;;11.88;5.40;;;;;;;;;;5069083;28;20648;-80
2021/12/01 08:23:09;;;;;;;8.68;4.47;;;;;;;;;;5068502;28;20053;-81
2021/12/01 08:25:40;;;;;;;8.35;4.18;;;;;;;;;;5070403;28;20052;-79
2021/12/01 08:28:07;;;;;;;10.70;4.32;;;;;;;;;;5070760;28;20053;-79
2021/12/01 08:30:33;;;;;;;13.00;5.10;;;;;;;;;;5068610;28;20053;-79
2021/12/01 08:33:00;;;;;;;12.40;3.95;;;;;;;;;;5066555;28;20053;-79
2021/12/01 08:35:27;;;;;;;12.98;4.50;;;;;;;;;;5067485;28;20052;-81
2021/12/01 08:37:54;;;;;;;9.82;4.28;;;;;;;;;;5064730;28;20063;-79
2021/12/01 08:40:20;;;;;;;11.98;4.10;;;;;;;;;;5054123;28;20076;-80
2021/12/01 08:42:47;;;;;;;13.27;3.97;;;;;;;;;;5062361;28;20107;-80
2021/12/01 08:45:14;;;;;;;11.73;4.30;;;;;;;;;;5065326;28;20056;-80
2021/12/01 08:47:40;;;;;;;11.43;4.45;;;;;;;;;;5064621;28;20081;-79
2021/12/01 08:50:07;;;;;;;11.02;4.15;;;;;;;;;;5054245;28;20127;-79
2021/12/01 08:52:34;;;;;;;17.30;3.15;;;;;;;;;;5066005;28;20605;-80
2021/12/01 08:55:01;;;;;;;11.52;2.45;;;;;;;;;;5070573;28;20081;-80
2021/12/01 08:57:27;;;;;;;9.95;2.42;;;;;;;;;;5071973;28;20748;-80
2021/12/01 08:59:53;;;;;;;7.55;2.25;;;;;;;;;;5067482;28;20085;-79
2021/12/01 09:02:20;;;;;;;8.95;2.17;;;;;;;;;;5054354;28;20064;-80
2021/12/01 09:04:50;;;;;;;6.07;1.85;;;;;;;;;;5051260;28;20132;-79
2021/12/01 09:07:17;;;;;;;9.38;2.00;;;;;;;;;;5052028;28;20322;-79
2021/12/01 09:09:43;;;;;;;8.05;1.40;;;;;;;;;;5064862;28;20488;-79
2021/12/01 09:12:10;;;;;;;5.05;1.20;;;;;;;;;;5053532;28;20104;-79
2021/12/01 09:14:36;;;;;;;5.88;1.08;;;;;;;;;;5052780;28;20096;-79
2021/12/01 09:17:03;;;;;;;7.05;1.40;;;;;;;;;;5084907;28;20057;-79
2021/12/01 09:19:29;;;;;;;8.20;1.45;;;;;;;;;;5069256;28;20516;-79
2021/12/01 09:21:56;;;;;;;7.28;1.35;;;;;;;;;;5070655;28;20384;-80
2021/12/01 09:24:22;;;;;;;11.25;1.30;;;;;;;;;;5070942;28;20069;-79
2021/12/01 09:26:49;;;;;;;7.68;1.10;;;;;;;;;;5059675;28;20108;-80
2021/12/01 09:29:16;;;;;;;9.50;1.08;;;;;;;;;;5060389;28;20110;-79
2021/12/01 09:31:42;;;;;;;8.93;1.15;;;;;;;;;;5071339;28;20108;-80
2021/12/01 09:34:08;;;;;;;6.97;1.00;;;;;;;;;;5070226;28;20059;-79
2021/12/01 09:36:35;;;;;;;8.35;0.80;;;;;;;;;;5069673;28;20142;-80
2021/12/01 09:39:02;;;;;;;6.65;1.10;;;;;;;;;;5071187;28;20100;-80
2021/12/01 09:41:29;;;;;;;8.85;1.20;;;;;;;;;;5069968;28;20083;-80
2021/12/01 09:43:55;;;;;;;3.95;0.90;;;;;;;;;;5070735;28;20084;-79
2021/12/01 09:46:22;;;;;;;4.95;1.10;;;;;;;;;;5071855;28;20041;-80
2021/12/01 09:48:49;;;;;;;4.53;1.15;;;;;;;;;;5069816;28;20040;-79
2021/12/01 09:51:16;;;;;;;6.70;0.82;;;;;;;;;;5065914;28;20085;-80
2021/12/01 09:53:43;;;;;;;9.80;1.38;;;;;;;;;;5067630;28;20107;-79
2021/12/01 09:56:10;;;;;;;5.70;1.00;;;;;;;;;;5069294;28;20063;-80
2021/12/01 09:58:36;;;;;;;5.78;0.90;;;;;;;;;;5071429;28;20103;-79
2021/12/01 10:01:04;;;;;;;7.60;0.93;;;;;;;;;;5070217;28;20147;-79
2021/12/01 10:03:31;;;;;;;5.03;1.48;;;;;;;;;;5068191;28;20072;-80
2021/12/01 10:06:03;;;;;;;3.78;0.70;;;;;;;;;;5066248;28;20514;-80
2021/12/01 10:08:35;;;;;;;5.28;0.90;;;;;;;;;;5071875;28;20080;-79
2021/12/01 10:11:15;;;;;;;7.63;1.00;;;;;;;;;;5072649;28;20088;-80
2021/12/01 10:13:44;;;;;;;8.63;1.17;;;;;;;;;;5069719;28;20731;-78
2021/12/01 10:16:12;;;;;;;6.60;0.90;;;;;;;;;;5070448;28;20045;-80
2021/12/01 10:18:40;;;;;;;7.30;1.05;;;;;;;;;;5064162;28;20056;-80
2021/12/01 10:21:06;;;;;;;7.10;1.00;;;;;;;;;;5068735;28;20045;-80
2021/12/01 10:23:34;;;;;;;9.65;1.08;;;;;;;;;;5057146;28;20057;-80
2021/12/01 10:26:26;;;;;;;5.03;0.93;;;;;;;;;;5069004;28;20053;-79
2021/12/01 10:28:54;;;;;;;6.43;1.05;;;;;;;;;;5059427;28;20088;-80
2021/12/01 10:31:35;;;;;;;4.65;0.80;;;;;;;;;;5072172;28;20053;-80
2021/12/01 10:34:20;;;;;;;5.82;0.82;;;;;;;;;;5065275;28;20057;-79
2021/12/01 10:36:48;;;;;;;8.10;1.10;;;;;;;;;;5067886;28;20058;-79
2021/12/01 10:39:15;;;;;;;7.75;1.20;;;;;;;;;;5067516;28;20587;-80
2021/12/01 10:41:43;;;;;;;12.45;1.58;;;;;;;;;;5068402;28;20111;-80
2021/12/01 10:44:14;;;;;;;5.30;1.30;;;;;;;;;;5066803;28;20114;-80
2021/12/01 10:46:48;;;;;;;10.25;1.20;;;;;;;;;;5070513;28;20072;-79
2021/12/01 10:49:15;;;;;;;7.60;1.23;;;;;;;;;;5072275;28;20060;-78
2021/12/01 10:51:43;;;;;;;8.15;1.40;;;;;;;;;;5069896;28;20922;-79
2021/12/01 10:54:13;;;;;;;8.15;1.90;;;;;;;;;;5070230;28;20892;-80
2021/12/01 10:56:39;;;;;;;11.38;1.20;;;;;;;;;;5070854;28;20087;-79
2021/12/01 10:59:13;;;;;;;4.95;1.00;;;;;;;;;;5067299;28;20057;-80
2021/12/01 11:01:39;;;;;;;7.95;1.17;;;;;;;;;;5070013;28;20106;-80
2021/12/01 11:04:06;;;;;;;7.85;1.17;;;;;;;;;;5070852;28;20063;-80
2021/12/01 11:06:38;;;;;;;7.00;1.05;;;;;;;;;;5057677;28;20110;-79
2021/12/01 11:09:04;;;;;;;9.40;1.30;;;;;;;;;;5063738;28;20593;-79
2021/12/01 11:11:42;;;;;;;10.75;1.20;;;;;;;;;;5058354;28;20053;-79
2021/12/01 11:14:25;;;;;;;11.18;1.58;;;;;;;;;;5072127;28;20056;-79
2021/12/01 11:16:51;;;;;;;4.93;1.40;;;;;;;;;;5074573;28;20092;-77
2021/12/01 11:19:30;;;;;;;8.90;1.23;;;;;;;;;;5066241;28;20057;-77
2021/12/01 11:21:56;;;;;;;7.47;1.23;;;;;;;;;;5067278;28;20099;-77
2021/12/01 11:24:23;;;;;;;11.25;1.50;;;;;;;;;;5063629;28;20084;-77
2021/12/01 11:26:49;;;;;;;8.02;1.10;;;;;;;;;;5066901;28;20134;-76
2021/12/01 11:29:35;;;;;;;11.90;1.33;;;;;;;;;;5064227;28;20045;-76
2021/12/01 11:32:02;;;;;;;8.48;1.35;;;;;;;;;;5075531;28;20114;-77
2021/12/01 11:34:28;;;;;;;6.70;1.23;;;;;;;;;;5072707;28;20053;-77
2021/12/01 11:36:55;;;;;;;8.40;1.35;;;;;;;;;;5064741;28;20685;-77
2021/12/01 11:39:25;;;;;;;11.15;2.53;;;;;;;;;;5066208;28;20056;-77
2021/12/01 11:41:52;;;;;;;12.90;1.60;;;;;;;;;;5067078;28;20107;-77
2021/12/01 11:44:19;;;;;;;10.77;2.60;;;;;;;;;;5066213;28;20317;-77
2021/12/01 11:46:49;;;;;;;11.05;1.35;;;;;;;;;;5067689;28;20084;-77
2021/12/01 11:49:17;;;;;;;12.27;1.70;;;;;;;;;;5076466;28;20122;-77
2021/12/01 11:51:53;;;;;;;9.07;1.92;;;;;;;;;;5079770;28;20451;-77
2021/12/01 11:54:20;;;;;;;12.93;1.95;;;;;;;;;;5065874;28;20049;-77
2021/12/01 11:56:52;;;;;;;9.73;1.35;;;;;;;;;;5066162;28;20057;-77
2021/12/01 11:59:21;;;;;;;10.43;1.45;;;;;;;;;;5067606;28;20053;-77
2021/12/01 12:01:48;;;;;;;11.00;1.25;;;;;;;;;;5067320;28;20528;-77
2021/12/01 12:04:16;;;;;;;6.93;1.15;;;;;;;;;;5067659;28;20528;-77
2021/12/01 12:06:47;;;;;;;11.95;1.52;;;;;;;;;;5065211;28;20076;-77
2021/12/01 12:09:13;;;;;;;;;;;;;;;;;;5066869;28;20558;-77
2021/12/01 12:11:56;;;;;;;7.95;1.35;;;;;;;;;;5058074;28;43841;-77
2021/12/01 12:14:28;;;;;;;8.57;1.20;;;;;;;;;;5054640;28;20147;-77
2021/12/01 12:17:07;;;;;;;11.07;1.27;;;;;;;;;;5046160;28;20095;-77
2021/12/01 12:19:42;;;;;;;7.05;1.25;;;;;;;;;;5059766;28;20057;-77
2021/12/01 12:22:10;;;;;;;10.20;1.42;;;;;;;;;;5063353;28;20465;-77
2021/12/01 12:24:47;;;;;;;9.55;1.60;;;;;;;;;;5066659;28;20088;-77
2021/12/01 12:27:33;;;;;;;9.65;1.95;;;;;;;;;;5064487;28;20049;-77
2021/12/01 12:30:01;;;;;;;7.20;1.30;;;;;;;;;;5059936;28;20115;-77
2021/12/01 12:32:33;;;;;;;7.28;1.15;;;;;;;;;;5063078;28;20067;-77
2021/12/01 12:35:01;;;;;;;12.23;1.88;;;;;;;;;;5065068;28;20608;-78
2021/12/01 12:37:30;;;;;;;9.93;1.08;;;;;;;;;;5063689;28;20495;-76
2021/12/01 12:39:57;;;;;;;10.15;1.42;;;;;;;;;;5064352;28;20098;-76
2021/12/01 12:42:24;;;;;;;8.65;1.02;;;;;;;;;;5066410;28;20664;-75
2021/12/01 12:44:52;;;;;;;9.75;2.60;;;;;;;;;;5062846;28;20053;-76
2021/12/01 12:47:25;;;;;;;9.20;1.50;;;;;;;;;;5063176;28;20049;-76
2021/12/01 12:49:53;;;;;;;9.25;1.60;;;;;;;;;;5063793;28;20056;-76
2021/12/01 12:52:26;;;;;;;5.47;1.23;;;;;;;;;;5066397;28;20053;-76
2021/12/01 12:54:56;;;;;;;11.02;1.13;;;;;;;;;;5066502;28;20056;-76
2021/12/01 12:57:24;;;;;;;8.73;1.35;;;;;;;;;;5075405;28;20049;-78
2021/12/01 13:00:10;;;;;;;9.18;1.40;;;;;;;;;;5086386;28;20102;-75
2021/12/01 13:02:36;;;;;;;6.88;1.30;;;;;;;;;;5084040;28;20555;-76
2021/12/01 13:05:05;;;;;;;7.38;1.30;;;;;;;;;;5085932;28;20080;-76
2021/12/01 13:07:40;;;;;;;7.07;1.08;;;;;;;;;;5068567;28;20057;-76
2021/12/01 13:10:13;;;;;;;9.57;1.38;;;;;;;;;;5063616;28;20056;-75
2021/12/01 13:12:47;;;;;;;5.88;1.17;;;;;;;;;;5045798;28;20081;-75
2021/12/01 13:15:18;;;;;;;5.60;1.13;;;;;;;;;;5061128;28;20053;-75
2021/12/01 13:17:52;;;;;;;6.72;1.15;;;;;;;;;;5062831;28;20057;-75
2021/12/01 13:20:22;;;;;;;8.18;1.35;;;;;;;;;;5066297;28;20527;-76
2021/12/01 13:23:21;;;;;;;11.43;1.35;;;;;;;;;;5065833;28;20150;-75
2021/12/01 13:25:56;;;;;;;6.47;1.58;;;;;;;;;;5040806;28;20665;-75
2021/12/01 13:28:29;;;;;;;6.65;1.33;;;;;;;;;;5063266;28;20877;-76
2021/12/01 13:31:19;;;;;;;11.25;1.80;;;;;;;;;;5050846;28;20123;-76
2021/12/01 13:34:04;;;;;;;9.40;1.15;;;;;;;;;;5037396;28;20053;-76
2021/12/01 13:36:35;;;;;;;7.75;1.58;;;;;;;;;;5048503;28;20515;-77
2021/12/01 13:39:05;;;;;;;10.90;1.33;;;;;;;;;;5046113;28;20054;-77
2021/12/01 13:41:33;;;;;;;9.70;1.35;;;;;;;;;;5063756;28;20135;-76
2021/12/01 13:44:04;;;;;;;11.98;1.58;;;;;;;;;;5069173;28;20103;-77
2021/12/01 13:46:31;;;;;;;;;;;;;;;;;;5066722;28;20057;-77
2021/12/01 13:48:57;;;;;;;14.02;1.80;;;;;;;;;;5065648;28;46869;-77
2021/12/01 13:51:24;;;;;;;6.78;1.42;;;;;;;;;;5068868;28;20085;-77
2021/12/01 13:53:51;;;;;;;11.07;1.60;;;;;;;;;;5063689;28;20590;-77
2021/12/01 13:56:19;;;;;;;10.20;2.03;;;;;;;;;;5047191;28;20053;-77
2021/12/01 13:58:54;;;;;;;12.55;1.83;;;;;;;;;;5047332;28;20050;-77
2021/12/01 14:01:21;;;;;;;11.10;1.80;;;;;;;;;;5067620;28;20110;-77
2021/12/01 14:03:51;;;;;;;;;;;;;;;;;;5069053;28;20053;-77
2021/12/01 14:06:19;;;;;;;14.50;2.15;;;;;;;;;;5086335;28;48442;-77
2021/12/01 14:09:05;;;;;;;7.93;1.20;;;;;;;;;;5087758;28;20537;-77
2021/12/01 14:11:31;;;;;;;19.45;2.88;;;;;;;;;;5069150;28;20578;-77
2021/12/01 14:13:59;;;;;;;7.57;1.42;;;;;;;;;;5067993;28;20053;-77
2021/12/01 14:16:27;;;;;;;10.05;1.67;;;;;;;;;;5066688;28;20568;-77
2021/12/01 14:18:54;;;;;;;12.00;1.77;;;;;;;;;;5067246;28;20053;-77
2021/12/01 14:21:22;;;;;;;13.90;2.20;;;;;;;;;;5067568;28;20088;-77
2021/12/01 14:23:50;;;;;;;9.73;1.88;;;;;;;;;;5066451;28;20080;-77
2021/12/01 14:26:25;;;;;;;11.25;1.50;;;;;;;;;;5066444;28;20507;-77
2021/12/01 14:28:58;;;;;;;11.13;1.23;;;;;;;;;;5067644;28;20526;-77
2021/12/01 14:31:25;;;;;;;6.97;1.40;;;;;;;;;;5065505;28;20486;-77
2021/12/01 14:34:18;;;;;;;7.38;1.20;;;;;;;;;;5067024;28;20061;-77
2021/12/01 14:36:45;;;;;;;5.68;1.85;;;;;;;;;;5063606;28;20154;-77
2021/12/01 14:39:16;;;;;;;6.43;1.20;;;;;;;;;;5068163;28;20301;-77
2021/12/01 14:41:44;;;;;;;11.55;1.48;;;;;;;;;;5060839;28;20067;-77
2021/12/01 14:44:11;;;;;;;8.52;1.63;;;;;;;;;;5066731;28;20138;-77
2021/12/01 14:46:37;;;;;;;7.10;1.27;;;;;;;;;;5065394;28;20106;-77
2021/12/01 14:49:09;;;;;;;8.68;1.27;;;;;;;;;;5060946;28;20115;-77